sensor_id;sensor_type;location;lat;lon;timestamp;pressure;altitude;pressure_sealevel;temperature;humidity
46690;BME280;32423;45.398;10.874;2022-12-10T00:02:37;99249.34;;;12.33;60.20
46690;BME280;32423;45.398;10.874;2022-12-10T00:05:22;99257.41;;;12.71;59.07
46690;BME280;32423;45.398;10.874;2022-12-10T00:08:06;99253.59;;;12.53;58.57
46690;BME280;32423;45.398;10.874;2022-12-10T00:10:50;99250.13;;;12.79;57.07
46690;BME280;32423;45.398;10.874;2022-12-10T00:13:35;99251.38;;;12.17;57.18
46690;BME280;32423;45.398;10.874;2022-12-10T00:16:21;99248.88;;;11.70;58.45
46690;BME280;32423;45.398;10.874;2022-12-10T00:19:06;99236.16;;;11.74;59.58
46690;BME280;32423;45.398;10.874;2022-12-10T00:21:51;99242.19;;;11.29;59.62
46690;BME280;32423;45.398;10.874;2022-12-10T00:24:35;99252.19;;;11.25;60.69
46690;BME280;32423;45.398;10.874;2022-12-10T00:27:20;99263.19;;;11.12;61.13
46690;BME280;32423;45.398;10.874;2022-12-10T00:30:04;99247.72;;;11.32;61.63
46690;BME280;32423;45.398;10.874;2022-12-10T00:32:49;99247.06;;;11.58;61.84
46690;BME280;32423;45.398;10.874;2022-12-10T00:35:36;99247.09;;;11.23;59.78
46690;BME280;32423;45.398;10.874;2022-12-10T00:38:20;99243.13;;;11.01;61.36
46690;BME280;32423;45.398;10.874;2022-12-10T00:41:06;99221.06;;;11.22;61.83
46690;BME280;32423;45.398;10.874;2022-12-10T00:43:51;99219.06;;;11.38;59.92
46690;BME280;32423;45.398;10.874;2022-12-10T00:46:35;99220.59;;;11.74;61.01
46690;BME280;32423;45.398;10.874;2022-12-10T00:49:19;99213.25;;;11.59;60.63
46690;BME280;32423;45.398;10.874;2022-12-10T00:52:07;99210.19;;;11.80;61.68
46690;BME280;32423;45.398;10.874;2022-12-10T00:54:52;99200.78;;;11.96;59.24
46690;BME280;32423;45.398;10.874;2022-12-10T00:57:36;99200.38;;;11.75;58.62
46690;BME280;32423;45.398;10.874;2022-12-10T01:00:21;99198.78;;;11.36;59.19
46690;BME280;32423;45.398;10.874;2022-12-10T01:03:05;99215.53;;;11.19;59.81
46690;BME280;32423;45.398;10.874;2022-12-10T01:05:50;99210.34;;;11.13;60.39
46690;BME280;32423;45.398;10.874;2022-12-10T01:08:34;99209.38;;;11.22;60.95
46690;BME280;32423;45.398;10.874;2022-12-10T01:11:19;99207.81;;;11.40;60.90
46690;BME280;32423;45.398;10.874;2022-12-10T01:14:05;99198.28;;;12.07;64.43
46690;BME280;32423;45.398;10.874;2022-12-10T01:16:53;99199.22;;;12.90;59.65
46690;BME280;32423;45.398;10.874;2022-12-10T01:19:38;99212.31;;;12.09;57.35
46690;BME280;32423;45.398;10.874;2022-12-10T01:22:22;99211.97;;;11.72;58.09
46690;BME280;32423;45.398;10.874;2022-12-10T01:25:07;99211.84;;;11.46;59.50
46690;BME280;32423;45.398;10.874;2022-12-10T01:27:52;99225.84;;;11.29;59.79
46690;BME280;32423;45.398;10.874;2022-12-10T01:30:36;99224.34;;;11.12;59.89
46690;BME280;32423;45.398;10.874;2022-12-10T01:33:21;99223.16;;;11.13;60.44
46690;BME280;32423;45.398;10.874;2022-12-10T01:36:07;99234.53;;;10.99;60.52
46690;BME280;32423;45.398;10.874;2022-12-10T01:38:54;99229.91;;;10.84;60.66
46690;BME280;32423;45.398;10.874;2022-12-10T01:41:39;99216.22;;;10.81;61.16
46690;BME280;32423;45.398;10.874;2022-12-10T01:47:09;99183.47;;;13.33;61.96
46690;BME280;32423;45.398;10.874;2022-12-10T01:49:54;99185.50;;;13.73;60.28
46690;BME280;32423;45.398;10.874;2022-12-10T01:52:38;99178.94;;;13.14;53.79
46690;BME280;32423;45.398;10.874;2022-12-10T01:55:41;99182.22;;;12.48;54.72
46690;BME280;32423;45.398;10.874;2022-12-10T01:58:26;99192.81;;;12.07;55.58
46690;BME280;32423;45.398;10.874;2022-12-10T02:01:14;99193.63;;;11.50;56.96
46690;BME280;32423;45.398;10.874;2022-12-10T02:04:03;99189.78;;;11.51;56.43
46690;BME280;32423;45.398;10.874;2022-12-10T02:06:54;99202.44;;;11.24;57.47
46690;BME280;32423;45.398;10.874;2022-12-10T02:09:47;99198.41;;;10.83;58.64
46690;BME280;32423;45.398;10.874;2022-12-10T02:12:39;99206.03;;;10.78;59.15
46690;BME280;32423;45.398;10.874;2022-12-10T02:15:29;99201.94;;;10.68;59.97
46690;BME280;32423;45.398;10.874;2022-12-10T02:21:22;99208.97;;;10.69;59.20
46690;BME280;32423;45.398;10.874;2022-12-10T02:24:08;99193.97;;;10.75;59.83
46690;BME280;32423;45.398;10.874;2022-12-10T02:26:58;99198.16;;;10.57;60.06
46690;BME280;32423;45.398;10.874;2022-12-10T02:29:47;99205.72;;;10.48;60.48
46690;BME280;32423;45.398;10.874;2022-12-10T02:32:35;99195.31;;;10.50;60.05
46690;BME280;32423;45.398;10.874;2022-12-10T02:35:26;99198.22;;;10.41;60.20
46690;BME280;32423;45.398;10.874;2022-12-10T02:38:16;99194.44;;;10.30;60.77
46690;BME280;32423;45.398;10.874;2022-12-10T02:41:04;99193.38;;;10.35;60.59
46690;BME280;32423;45.398;10.874;2022-12-10T02:43:51;99184.34;;;10.31;60.86
46690;BME280;32423;45.398;10.874;2022-12-10T02:46:37;99187.94;;;10.35;60.88
46690;BME280;32423;45.398;10.874;2022-12-10T02:49:24;99186.53;;;10.41;60.38
46690;BME280;32423;45.398;10.874;2022-12-10T02:52:12;99181.72;;;10.50;61.43
46690;BME280;32423;45.398;10.874;2022-12-10T02:55:00;99189.84;;;10.81;59.67
46690;BME280;32423;45.398;10.874;2022-12-10T03:00:38;99202.75;;;10.37;60.53
46690;BME280;32423;45.398;10.874;2022-12-10T03:06:36;99189.78;;;10.46;60.79
46690;BME280;32423;45.398;10.874;2022-12-10T03:09:24;99175.19;;;10.70;60.67
46690;BME280;32423;45.398;10.874;2022-12-10T03:15:15;99166.09;;;10.31;60.67
46690;BME280;32423;45.398;10.874;2022-12-10T03:18:02;99167.22;;;10.14;62.25
46690;BME280;32423;45.398;10.874;2022-12-10T03:20:47;99162.88;;;10.25;61.80
46690;BME280;32423;45.398;10.874;2022-12-10T03:23:34;99167.41;;;10.21;61.59
46690;BME280;32423;45.398;10.874;2022-12-10T03:26:19;99159.53;;;10.16;61.16
46690;BME280;32423;45.398;10.874;2022-12-10T03:29:06;99159.00;;;9.95;62.29
46690;BME280;32423;45.398;10.874;2022-12-10T03:31:52;99169.72;;;9.92;62.88
46690;BME280;32423;45.398;10.874;2022-12-10T03:34:37;99183.03;;;10.24;62.17
46690;BME280;32423;45.398;10.874;2022-12-10T03:37:22;99180.72;;;10.58;62.79
46690;BME280;32423;45.398;10.874;2022-12-10T03:40:07;99178.38;;;10.56;61.53
46690;BME280;32423;45.398;10.874;2022-12-10T03:42:53;99180.41;;;10.44;61.35
46690;BME280;32423;45.398;10.874;2022-12-10T03:45:37;99183.03;;;10.56;62.14
46690;BME280;32423;45.398;10.874;2022-12-10T03:48:21;99180.44;;;10.79;61.44
46690;BME280;32423;45.398;10.874;2022-12-10T03:51:06;99181.47;;;10.90;61.30
46690;BME280;32423;45.398;10.874;2022-12-10T03:53:50;99193.09;;;10.71;60.94
46690;BME280;32423;45.398;10.874;2022-12-10T03:56:34;99204.66;;;10.68;62.29
46690;BME280;32423;45.398;10.874;2022-12-10T03:59:19;99193.09;;;10.55;63.28
46690;BME280;32423;45.398;10.874;2022-12-10T04:02:03;99196.97;;;10.39;62.62
46690;BME280;32423;45.398;10.874;2022-12-10T04:04:48;99196.44;;;10.33;62.92
46690;BME280;32423;45.398;10.874;2022-12-10T04:07:33;99187.59;;;10.20;63.43
46690;BME280;32423;45.398;10.874;2022-12-10T04:10:17;99176.63;;;10.17;63.47
46690;BME280;32423;45.398;10.874;2022-12-10T04:13:02;99171.53;;;10.15;63.24
46690;BME280;32423;45.398;10.874;2022-12-10T04:16:07;99160.13;;;10.10;63.68
46690;BME280;32423;45.398;10.874;2022-12-10T04:19:10;99161.94;;;10.06;63.73
46690;BME280;32423;45.398;10.874;2022-12-10T04:21:56;99157.81;;;9.96;63.66
46690;BME280;32423;45.398;10.874;2022-12-10T04:24:59;99155.91;;;9.97;63.93
46690;BME280;32423;45.398;10.874;2022-12-10T04:28:02;99168.09;;;10.03;63.85
46690;BME280;32423;45.398;10.874;2022-12-10T04:30:46;99167.81;;;9.92;64.44
46690;BME280;32423;45.398;10.874;2022-12-10T04:33:31;99162.56;;;9.83;64.18
46690;BME280;32423;45.398;10.874;2022-12-10T04:36:15;99163.84;;;9.74;65.26
46690;BME280;32423;45.398;10.874;2022-12-10T04:39:00;99163.84;;;9.74;65.18
46690;BME280;32423;45.398;10.874;2022-12-10T04:41:45;99166.56;;;9.74;65.01
46690;BME280;32423;45.398;10.874;2022-12-10T04:44:29;99169.53;;;9.69;65.14
46690;BME280;32423;45.398;10.874;2022-12-10T04:47:14;99173.28;;;9.64;65.05
46690;BME280;32423;45.398;10.874;2022-12-10T04:49:58;99161.56;;;9.76;64.82
46690;BME280;32423;45.398;10.874;2022-12-10T04:52:43;99148.56;;;9.54;65.37
46690;BME280;32423;45.398;10.874;2022-12-10T04:55:27;99147.94;;;9.44;66.20
46690;BME280;32423;45.398;10.874;2022-12-10T04:58:11;99147.41;;;9.39;66.31
46690;BME280;32423;45.398;10.874;2022-12-10T05:01:02;99148.38;;;9.47;65.73
46690;BME280;32423;45.398;10.874;2022-12-10T05:03:47;99147.44;;;9.55;65.76
46690;BME280;32423;45.398;10.874;2022-12-10T05:06:32;99141.81;;;9.48;65.91
46690;BME280;32423;45.398;10.874;2022-12-10T05:09:16;99138.59;;;9.58;65.89
46690;BME280;32423;45.398;10.874;2022-12-10T05:12:01;99136.72;;;9.46;65.82
46690;BME280;32423;45.398;10.874;2022-12-10T05:14:45;99122.72;;;9.44;66.13
46690;BME280;32423;45.398;10.874;2022-12-10T05:17:29;99134.38;;;9.44;66.28
46690;BME280;32423;45.398;10.874;2022-12-10T05:20:14;99137.50;;;9.47;66.33
46690;BME280;32423;45.398;10.874;2022-12-10T05:22:58;99147.69;;;9.50;65.87
46690;BME280;32423;45.398;10.874;2022-12-10T05:28:51;99122.69;;;9.28;67.33
46690;BME280;32423;45.398;10.874;2022-12-10T05:31:35;99114.44;;;9.25;67.14
46690;BME280;32423;45.398;10.874;2022-12-10T05:34:20;99122.91;;;9.51;66.58
46690;BME280;32423;45.398;10.874;2022-12-10T05:37:05;99126.69;;;9.62;66.10
46690;BME280;32423;45.398;10.874;2022-12-10T05:39:49;99121.28;;;9.62;66.19
46690;BME280;32423;45.398;10.874;2022-12-10T05:42:33;99131.00;;;9.63;66.27
46690;BME280;32423;45.398;10.874;2022-12-10T05:45:18;99118.28;;;9.52;66.05
46690;BME280;32423;45.398;10.874;2022-12-10T05:48:02;99115.81;;;9.47;66.49
46690;BME280;32423;45.398;10.874;2022-12-10T05:50:46;99121.44;;;9.54;66.10
46690;BME280;32423;45.398;10.874;2022-12-10T05:53:31;99124.06;;;9.66;66.36
46690;BME280;32423;45.398;10.874;2022-12-10T05:56:16;99119.84;;;9.53;66.71
46690;BME280;32423;45.398;10.874;2022-12-10T05:59:02;99122.81;;;9.48;67.16
46690;BME280;32423;45.398;10.874;2022-12-10T06:01:47;99109.00;;;9.53;67.02
46690;BME280;32423;45.398;10.874;2022-12-10T06:04:31;99115.81;;;9.47;66.94
46690;BME280;32423;45.398;10.874;2022-12-10T06:07:15;99114.44;;;9.53;66.61
46690;BME280;32423;45.398;10.874;2022-12-10T06:10:00;99114.09;;;9.54;66.83
46690;BME280;32423;45.398;10.874;2022-12-10T06:12:44;99106.28;;;9.53;66.56
46690;BME280;32423;45.398;10.874;2022-12-10T06:15:29;99103.25;;;9.70;66.51
46690;BME280;32423;45.398;10.874;2022-12-10T06:18:13;99104.56;;;9.76;67.39
46690;BME280;32423;45.398;10.874;2022-12-10T06:20:58;99108.69;;;9.70;66.60
46690;BME280;32423;45.398;10.874;2022-12-10T06:23:42;99105.53;;;9.68;66.83
46690;BME280;32423;45.398;10.874;2022-12-10T06:26:27;99101.56;;;9.65;66.30
46690;BME280;32423;45.398;10.874;2022-12-10T06:29:15;99099.09;;;9.60;66.41
46690;BME280;32423;45.398;10.874;2022-12-10T06:31:59;99103.41;;;9.61;66.77
46690;BME280;32423;45.398;10.874;2022-12-10T06:34:43;99107.50;;;9.55;66.47
46690;BME280;32423;45.398;10.874;2022-12-10T06:37:28;99111.25;;;9.51;66.85
46690;BME280;32423;45.398;10.874;2022-12-10T06:40:13;99116.19;;;9.61;66.74
46690;BME280;32423;45.398;10.874;2022-12-10T06:42:57;99124.56;;;9.56;66.21
46690;BME280;32423;45.398;10.874;2022-12-10T06:45:42;99120.28;;;9.39;67.09
46690;BME280;32423;45.398;10.874;2022-12-10T06:48:26;99123.78;;;9.39;67.17
46690;BME280;32423;45.398;10.874;2022-12-10T06:51:11;99119.84;;;9.53;66.87
46690;BME280;32423;45.398;10.874;2022-12-10T06:53:56;99120.19;;;9.51;67.20
46690;BME280;32423;45.398;10.874;2022-12-10T06:56:42;99123.31;;;9.37;67.42
46690;BME280;32423;45.398;10.874;2022-12-10T06:59:27;99125.69;;;9.39;67.57
46690;BME280;32423;45.398;10.874;2022-12-10T07:02:11;99147.00;;;9.53;68.22
46690;BME280;32423;45.398;10.874;2022-12-10T07:04:56;99143.31;;;9.61;67.36
46690;BME280;32423;45.398;10.874;2022-12-10T07:07:41;99145.94;;;10.32;66.37
46690;BME280;32423;45.398;10.874;2022-12-10T07:10:25;99146.63;;;9.98;65.81
46690;BME280;32423;45.398;10.874;2022-12-10T07:13:09;99135.31;;;9.80;66.15
46690;BME280;32423;45.398;10.874;2022-12-10T07:15:54;99147.13;;;9.72;66.72
46690;BME280;32423;45.398;10.874;2022-12-10T07:18:38;99159.41;;;9.97;69.67
46690;BME280;32423;45.398;10.874;2022-12-10T07:21:24;99159.16;;;10.02;66.22
46690;BME280;32423;45.398;10.874;2022-12-10T07:24:10;99154.84;;;9.85;66.40
46690;BME280;32423;45.398;10.874;2022-12-10T07:26:55;99146.69;;;9.70;67.11
46690;BME280;32423;45.398;10.874;2022-12-10T07:29:39;99150.78;;;9.64;67.33
46690;BME280;32423;45.398;10.874;2022-12-10T07:32:24;99150.41;;;9.50;67.54
46690;BME280;32423;45.398;10.874;2022-12-10T07:35:08;99152.66;;;9.48;67.72
46690;BME280;32423;45.398;10.874;2022-12-10T07:37:52;99158.53;;;9.50;68.46
46690;BME280;32423;45.398;10.874;2022-12-10T07:40:37;99154.13;;;9.45;68.20
46690;BME280;32423;45.398;10.874;2022-12-10T07:43:21;99154.66;;;9.78;71.37
46690;BME280;32423;45.398;10.874;2022-12-10T07:46:10;99165.03;;;9.61;68.00
46690;BME280;32423;45.398;10.874;2022-12-10T07:48:55;99155.13;;;9.53;68.47
46690;BME280;32423;45.398;10.874;2022-12-10T07:51:43;99155.13;;;9.53;68.22
46690;BME280;32423;45.398;10.874;2022-12-10T07:54:28;99146.19;;;9.80;68.13
46690;BME280;32423;45.398;10.874;2022-12-10T07:57:12;99151.00;;;9.86;67.91
46690;BME280;32423;45.398;10.874;2022-12-10T07:59:58;99150.31;;;9.90;68.04
46690;BME280;32423;45.398;10.874;2022-12-10T08:02:43;99154.47;;;9.71;67.70
46690;BME280;32423;45.398;10.874;2022-12-10T08:05:27;99147.66;;;9.77;67.36
46690;BME280;32423;45.398;10.874;2022-12-10T08:08:12;99134.84;;;9.62;67.92
46690;BME280;32423;45.398;10.874;2022-12-10T08:10:58;99130.41;;;9.70;69.25
46690;BME280;32423;45.398;10.874;2022-12-10T08:13:43;99135.75;;;9.82;69.29
46690;BME280;32423;45.398;10.874;2022-12-10T08:16:28;99137.31;;;9.67;67.69
46690;BME280;32423;45.398;10.874;2022-12-10T08:19:13;99144.22;;;9.65;68.09
46690;BME280;32423;45.398;10.874;2022-12-10T08:21:57;99137.06;;;9.88;72.17
46690;BME280;32423;45.398;10.874;2022-12-10T08:24:42;99131.09;;;9.82;67.62
46690;BME280;32423;45.398;10.874;2022-12-10T08:27:27;99123.56;;;9.76;67.74
46690;BME280;32423;45.398;10.874;2022-12-10T08:30:11;99125.56;;;9.63;68.10
46690;BME280;32423;45.398;10.874;2022-12-10T08:32:56;99130.91;;;9.60;68.84
46690;BME280;32423;45.398;10.874;2022-12-10T08:35:41;99122.09;;;9.78;69.14
46690;BME280;32423;45.398;10.874;2022-12-10T08:38:25;99136.38;;;10.07;70.93
46690;BME280;32423;45.398;10.874;2022-12-10T08:41:11;99137.53;;;9.90;67.59
46690;BME280;32423;45.398;10.874;2022-12-10T08:43:56;99138.28;;;9.91;67.62
46690;BME280;32423;45.398;10.874;2022-12-10T08:46:40;99150.81;;;9.79;68.10
46690;BME280;32423;45.398;10.874;2022-12-10T08:49:24;99145.28;;;9.76;68.22
46690;BME280;32423;45.398;10.874;2022-12-10T08:52:09;99157.88;;;9.68;68.20
46690;BME280;32423;45.398;10.874;2022-12-10T08:54:53;99152.72;;;9.63;68.40
46690;BME280;32423;45.398;10.874;2022-12-10T08:57:37;99146.56;;;9.66;68.75
46690;BME280;32423;45.398;10.874;2022-12-10T09:00:22;99153.78;;;9.74;68.55
46690;BME280;32423;45.398;10.874;2022-12-10T09:03:08;99153.88;;;9.78;68.22
46690;BME280;32423;45.398;10.874;2022-12-10T09:05:53;99151.13;;;9.62;68.97
46690;BME280;32423;45.398;10.874;2022-12-10T09:08:38;99150.34;;;9.62;69.40
46690;BME280;32423;45.398;10.874;2022-12-10T09:11:27;99143.31;;;9.61;69.04
46690;BME280;32423;45.398;10.874;2022-12-10T09:14:12;99151.91;;;9.63;69.23
46690;BME280;32423;45.398;10.874;2022-12-10T09:16:57;99147.38;;;9.67;69.17
46690;BME280;32423;45.398;10.874;2022-12-10T09:19:41;99154.84;;;9.70;69.17
46690;BME280;32423;45.398;10.874;2022-12-10T09:22:25;99155.09;;;9.65;69.60
46690;BME280;32423;45.398;10.874;2022-12-10T09:25:10;99147.91;;;9.72;69.18
46690;BME280;32423;45.398;10.874;2022-12-10T09:27:54;99151.88;;;9.75;69.14
46690;BME280;32423;45.398;10.874;2022-12-10T09:30:38;99148.78;;;9.76;68.76
46690;BME280;32423;45.398;10.874;2022-12-10T09:33:23;99153.66;;;9.71;69.33
46690;BME280;32423;45.398;10.874;2022-12-10T09:36:08;99152.78;;;9.67;69.47
46690;BME280;32423;45.398;10.874;2022-12-10T09:38:54;99148.06;;;9.64;69.70
46690;BME280;32423;45.398;10.874;2022-12-10T09:41:54;99144.13;;;9.61;69.80
46690;BME280;32423;45.398;10.874;2022-12-10T09:47:36;99135.53;;;9.59;70.26
46690;BME280;32423;45.398;10.874;2022-12-10T09:50:27;99132.47;;;9.61;70.07
46690;BME280;32423;45.398;10.874;2022-12-10T09:53:15;99129.75;;;9.61;70.19
46690;BME280;32423;45.398;10.874;2022-12-10T09:56:02;99134.38;;;9.60;70.21
46690;BME280;32423;45.398;10.874;2022-12-10T09:58:47;99128.97;;;9.60;70.48
46690;BME280;32423;45.398;10.874;2022-12-10T10:01:31;99120.94;;;9.64;70.50
46690;BME280;32423;45.398;10.874;2022-12-10T10:04:17;99117.25;;;9.72;70.80
46690;BME280;32423;45.398;10.874;2022-12-10T10:07:01;99112.69;;;9.76;69.97
46690;BME280;32423;45.398;10.874;2022-12-10T10:09:48;99105.22;;;9.85;69.97
46690;BME280;32423;45.398;10.874;2022-12-10T10:12:34;99101.19;;;10.10;70.38
46690;BME280;32423;45.398;10.874;2022-12-10T10:15:22;99093.56;;;10.16;68.47
46690;BME280;32423;45.398;10.874;2022-12-10T10:20:52;99089.06;;;10.93;68.66
46690;BME280;32423;45.398;10.874;2022-12-10T10:23:36;99084.31;;;11.06;65.62
46690;BME280;32423;45.398;10.874;2022-12-10T10:26:23;99091.84;;;11.96;64.26
46690;BME280;32423;45.398;10.874;2022-12-10T10:29:11;99071.84;;;12.64;63.02
46690;BME280;32423;45.398;10.874;2022-12-10T10:34:59;99063.06;;;12.78;61.26
46690;BME280;32423;45.398;10.874;2022-12-10T10:37:44;99058.41;;;12.78;61.01
46690;BME280;32423;45.398;10.874;2022-12-10T10:40:33;99047.88;;;12.24;61.71
46690;BME280;32423;45.398;10.874;2022-12-10T10:43:24;99044.81;;;11.77;62.69
46690;BME280;32423;45.398;10.874;2022-12-10T10:46:14;99041.06;;;11.43;63.76
46690;BME280;32423;45.398;10.874;2022-12-10T10:49:12;99031.09;;;11.08;64.54
46690;BME280;32423;45.398;10.874;2022-12-10T10:55:05;99020.25;;;10.70;67.15
46690;BME280;32423;45.398;10.874;2022-12-10T10:57:49;99023.19;;;10.61;67.34
46690;BME280;32423;45.398;10.874;2022-12-10T11:00:36;99023.09;;;10.58;67.56
46690;BME280;32423;45.398;10.874;2022-12-10T11:03:20;99013.56;;;10.48;68.47
46690;BME280;32423;45.398;10.874;2022-12-10T11:06:06;99014.91;;;10.39;69.01
46690;BME280;32423;45.398;10.874;2022-12-10T11:08:54;99003.53;;;10.33;69.63
46690;BME280;32423;45.398;10.874;2022-12-10T11:11:40;99010.06;;;10.48;69.15
46690;BME280;32423;45.398;10.874;2022-12-10T11:20:12;99002.47;;;10.38;69.84
46690;BME280;32423;45.398;10.874;2022-12-10T11:22:58;99003.19;;;10.35;70.01
46690;BME280;32423;45.398;10.874;2022-12-10T11:31:47;98996.06;;;11.49;66.80
46690;BME280;32423;45.398;10.874;2022-12-10T11:37:55;98995.22;;;11.90;65.66
46690;BME280;32423;45.398;10.874;2022-12-10T11:43:38;98995.19;;;12.13;63.70
46690;BME280;32423;45.398;10.874;2022-12-10T11:46:37;98989.19;;;12.30;64.38
46690;BME280;32423;45.398;10.874;2022-12-10T11:49:31;98978.25;;;12.27;64.65
46690;BME280;32423;45.398;10.874;2022-12-10T11:52:33;98974.09;;;12.36;65.17
46690;BME280;32423;45.398;10.874;2022-12-10T11:58:34;98975.09;;;12.55;63.90
46690;BME280;32423;45.398;10.874;2022-12-10T12:01:28;98974.69;;;12.53;65.33
46690;BME280;32423;45.398;10.874;2022-12-10T12:10:06;98957.53;;;12.85;64.16
46690;BME280;32423;45.398;10.874;2022-12-10T12:13:04;98948.91;;;12.80;64.00
46690;BME280;32423;45.398;10.874;2022-12-10T12:15:51;98949.88;;;12.98;65.26
46690;BME280;32423;45.398;10.874;2022-12-10T12:21:28;98933.53;;;13.02;63.20
46690;BME280;32423;45.398;10.874;2022-12-10T12:24:28;98934.91;;;13.18;64.37
46690;BME280;32423;45.398;10.874;2022-12-10T12:30:16;98925.81;;;13.07;62.36
46690;BME280;32423;45.398;10.874;2022-12-10T12:33:04;98922.94;;;12.93;62.79
46690;BME280;32423;45.398;10.874;2022-12-10T12:36:00;98920.56;;;13.25;63.64
46690;BME280;32423;45.398;10.874;2022-12-10T12:44:21;98912.34;;;12.84;62.81
46690;BME280;32423;45.398;10.874;2022-12-10T12:50:24;98902.91;;;12.41;63.31
46690;BME280;32423;45.398;10.874;2022-12-10T12:53:17;98903.25;;;11.80;65.70
46690;BME280;32423;45.398;10.874;2022-12-10T12:59:24;98887.53;;;11.21;67.92
46690;BME280;32423;45.398;10.874;2022-12-10T13:04:59;98884.22;;;11.08;68.79
46690;BME280;32423;45.398;10.874;2022-12-10T13:07:44;98892.78;;;11.33;71.20
46690;BME280;32423;45.398;10.874;2022-12-10T13:13:35;98886.34;;;12.61;64.74
46690;BME280;32423;45.398;10.874;2022-12-10T13:19:29;98880.81;;;13.31;63.75
46690;BME280;32423;45.398;10.874;2022-12-10T13:25:18;98872.63;;;13.89;64.03
46690;BME280;32423;45.398;10.874;2022-12-10T13:28:21;98883.38;;;14.30;64.31
46690;BME280;32423;45.398;10.874;2022-12-10T13:39:36;98871.50;;;15.33;55.93
46690;BME280;32423;45.398;10.874;2022-12-10T13:42:25;98885.44;;;14.50;58.02
46690;BME280;32423;45.398;10.874;2022-12-10T13:45:30;98885.06;;;14.59;61.10
46690;BME280;32423;45.398;10.874;2022-12-10T13:48:16;98885.63;;;14.10;59.38
46690;BME280;32423;45.398;10.874;2022-12-10T13:51:08;98880.69;;;13.64;58.66
46690;BME280;32423;45.398;10.874;2022-12-10T13:54:00;98885.47;;;13.27;60.66
46690;BME280;32423;45.398;10.874;2022-12-10T13:59:57;98890.94;;;12.20;63.23
46690;BME280;32423;45.398;10.874;2022-12-10T14:03:06;98891.53;;;11.76;64.83
46690;BME280;32423;45.398;10.874;2022-12-10T14:08:52;98894.00;;;11.36;66.96
46690;BME280;32423;45.398;10.874;2022-12-10T14:11:40;98885.53;;;11.18;67.14
46690;BME280;32423;45.398;10.874;2022-12-10T14:14:34;98886.53;;;11.06;67.97
46690;BME280;32423;45.398;10.874;2022-12-10T14:17:22;98878.25;;;10.99;68.32
46690;BME280;32423;45.398;10.874;2022-12-10T14:20:12;98873.94;;;10.98;68.65
46690;BME280;32423;45.398;10.874;2022-12-10T14:23:02;98872.75;;;10.96;69.17
46690;BME280;32423;45.398;10.874;2022-12-10T14:26:13;98873.75;;;10.88;68.77
46690;BME280;32423;45.398;10.874;2022-12-10T14:29:00;98873.09;;;10.94;68.73
46690;BME280;32423;45.398;10.874;2022-12-10T14:31:46;98879.13;;;10.84;69.27
46690;BME280;32423;45.398;10.874;2022-12-10T14:34:31;98884.53;;;10.81;69.14
46690;BME280;32423;45.398;10.874;2022-12-10T14:37:15;98892.88;;;10.72;69.14
46690;BME280;32423;45.398;10.874;2022-12-10T14:40:01;98893.13;;;10.63;69.77
46690;BME280;32423;45.398;10.874;2022-12-10T14:42:48;98893.75;;;10.76;69.72
46690;BME280;32423;45.398;10.874;2022-12-10T14:45:38;98901.19;;;10.79;68.74
46690;BME280;32423;45.398;10.874;2022-12-10T14:48:25;98905.63;;;10.68;69.14
46690;BME280;32423;45.398;10.874;2022-12-10T14:51:13;98892.28;;;10.59;69.07
46690;BME280;32423;45.398;10.874;2022-12-10T14:53:58;98904.63;;;10.57;69.38
46690;BME280;32423;45.398;10.874;2022-12-10T14:56:43;98904.94;;;10.52;69.84
46690;BME280;32423;45.398;10.874;2022-12-10T14:59:41;98901.75;;;10.46;69.58
46690;BME280;32423;45.398;10.874;2022-12-10T15:02:29;98901.66;;;10.43;69.80
46690;BME280;32423;45.398;10.874;2022-12-10T15:05:19;98898.53;;;10.41;69.72
46690;BME280;32423;45.398;10.874;2022-12-10T15:08:05;98903.22;;;10.44;69.70
46690;BME280;32423;45.398;10.874;2022-12-10T15:10:51;98909.81;;;10.43;69.84
46690;BME280;32423;45.398;10.874;2022-12-10T15:13:40;98907.31;;;10.34;70.06
46690;BME280;32423;45.398;10.874;2022-12-10T15:19:33;98903.59;;;10.23;70.35
46690;BME280;32423;45.398;10.874;2022-12-10T15:22:20;98907.16;;;10.27;70.46
46690;BME280;32423;45.398;10.874;2022-12-10T15:25:19;98902.09;;;10.25;70.38
46690;BME280;32423;45.398;10.874;2022-12-10T15:28:04;98901.22;;;10.21;70.83
46690;BME280;32423;45.398;10.874;2022-12-10T15:30:48;98900.38;;;10.17;71.06
46690;BME280;32423;45.398;10.874;2022-12-10T15:33:47;98899.66;;;10.20;70.62
46690;BME280;32423;45.398;10.874;2022-12-10T15:36:36;98900.03;;;10.19;70.74
46690;BME280;32423;45.398;10.874;2022-12-10T15:39:27;98905.78;;;10.17;71.64
46690;BME280;32423;45.398;10.874;2022-12-10T15:42:26;98914.81;;;10.21;70.92
46690;BME280;32423;45.398;10.874;2022-12-10T15:47:57;98911.91;;;10.30;69.57
46690;BME280;32423;45.398;10.874;2022-12-10T15:50:43;98913.09;;;10.33;69.80
46690;BME280;32423;45.398;10.874;2022-12-10T15:53:34;98922.94;;;10.21;69.95
46690;BME280;32423;45.398;10.874;2022-12-10T15:56:18;98923.38;;;10.23;70.27
46690;BME280;32423;45.398;10.874;2022-12-10T15:59:03;98926.19;;;10.11;70.25
46690;BME280;32423;45.398;10.874;2022-12-10T16:01:47;98921.13;;;10.10;70.09
46690;BME280;32423;45.398;10.874;2022-12-10T16:04:32;98914.41;;;10.04;70.52
46690;BME280;32423;45.398;10.874;2022-12-10T16:07:17;98918.75;;;10.43;69.71
46690;BME280;32423;45.398;10.874;2022-12-10T16:10:02;98913.81;;;10.49;68.62
46690;BME280;32423;45.398;10.874;2022-12-10T16:12:48;98913.09;;;10.33;69.54
46690;BME280;32423;45.398;10.874;2022-12-10T16:15:40;98911.78;;;10.26;69.53
46690;BME280;32423;45.398;10.874;2022-12-10T16:18:27;98917.88;;;10.58;69.18
46690;BME280;32423;45.398;10.874;2022-12-10T16:21:11;98912.78;;;10.57;68.00
46690;BME280;32423;45.398;10.874;2022-12-10T16:23:56;98903.66;;;10.65;69.37
46690;BME280;32423;45.398;10.874;2022-12-10T16:26:40;98914.47;;;10.61;68.37